Albany, New York
Traffic Map
Current Weather Conditions
Albany, New York
Overcast Light Rain
Overcast
74°
Feels Like: 74°
Wind Chill: 74° Ceiling: 3400
Heat Index: 74° Visibility: 10mi
Dew Point: 71° Wind: 8mph
Humidity: 91% Direction: 180° (S)
Pressure: 29.84in Gusts: 0mph
Raw Report DataKALB 180651Z 18007KT 10SM -RA FEW005 BKN034 BKN065 OVC140 23/22 A2984 RMK AO2 RAB41 SLP102 FEW V SCT P0000 T02330217
Traffic Incident Summary
Active as of:
Severity:
Category:
InformationThere was an issue retrieving the traffic information for this location. Please try a different location or try again shortly.
Advertisements